Time;durP1;ratioP1;P1;durP2;ratioP2;P2;SDS_P1;SDS_P2;PMS_P1;PMS_P2;Temp;Humidity;BMP_temperature;BMP_pressure;BME280_temperature;BME280_humidity;BME280_pressure;Samples;Min_cycle;Max_cycle;Signal;HPM_P1;HPM_P2
2021/03/12 00:01:06;;;;;;;4.10;2.25;;;;;;;10.84;65.71;100893.56;5094177;28;20035;-73
2021/03/12 00:03:36;;;;;;;2.50;2.30;;;;;;;10.80;66.01;100903.75;5094075;28;20020;-73
2021/03/12 00:06:09;;;;;;;5.03;3.58;;;;;;;10.92;65.86;100896.25;5094361;28;20409;-73
2021/03/12 00:08:43;;;;;;;2.47;2.22;;;;;;;11.04;65.91;100894.63;5094805;28;20379;-73
2021/03/12 00:11:27;;;;;;;4.30;2.38;;;;;;;10.96;65.88;100890.78;5093961;28;20032;-73
2021/03/12 00:13:55;;;;;;;6.28;2.63;;;;;;;10.97;66.20;100872.91;5079814;28;20036;-73
2021/03/12 00:16:23;;;;;;;3.70;2.50;;;;;;;11.07;66.13;100882.75;5093860;28;20031;-73
2021/03/12 00:18:48;;;;;;;3.42;2.05;;;;;;;11.08;66.74;100887.16;5094124;28;20031;-73
2021/03/12 00:21:19;;;;;;;3.35;3.05;;;;;;;10.93;66.56;100883.94;5094038;28;20563;-73
2021/03/12 00:23:48;;;;;;;3.38;2.55;;;;;;;10.87;67.12;100888.13;5093657;28;20020;-73
2021/03/12 00:26:14;;;;;;;5.97;3.10;;;;;;;10.65;67.25;100869.06;5093720;28;20042;-73
2021/03/12 00:28:42;;;;;;;5.65;2.60;;;;;;;10.80;67.85;100885.09;5093074;28;20040;-74
2021/03/12 00:31:08;;;;;;;6.45;2.60;;;;;;;10.79;68.36;100891.00;5093598;28;20032;-73
2021/03/12 00:33:33;;;;;;;2.47;2.22;;;;;;;10.97;67.89;100887.66;5093531;28;20131;-73
2021/03/12 00:35:59;;;;;;;5.57;2.70;;;;;;;11.02;67.22;100887.44;5094095;28;20020;-73
2021/03/12 00:38:26;;;;;;;5.85;2.92;;;;;;;10.95;67.82;100886.38;5093483;28;20466;-74
2021/03/12 00:41:01;;;;;;;3.20;2.63;;;;;;;11.01;68.45;100888.56;5094268;28;20413;-73
2021/03/12 00:43:27;;;;;;;5.53;2.88;;;;;;;11.04;68.24;100894.63;5093343;28;20056;-73
2021/03/12 00:45:58;;;;;;;4.97;2.55;;;;;;;11.01;68.85;100890.53;5093654;28;20059;-73
2021/03/12 00:48:25;;;;;;;4.40;2.42;;;;;;;10.89;68.93;100877.44;5093610;28;20028;-73
2021/03/12 00:50:51;;;;;;;4.30;2.50;;;;;;;10.95;69.04;100878.84;5093050;28;20074;-73
2021/03/12 00:53:18;;;;;;;6.35;2.95;;;;;;;11.09;69.07;100880.47;5093497;28;20043;-73
2021/03/12 00:55:44;;;;;;;3.50;2.78;;;;;;;10.87;68.86;100857.50;5093170;28;20042;-73
2021/03/12 00:58:10;;;;;;;4.82;2.92;;;;;;;11.08;69.22;100876.03;5093158;28;20028;-73
2021/03/12 01:00:37;;;;;;;5.47;2.92;;;;;;;11.07;69.08;100879.97;5093067;28;20039;-73
2021/03/12 01:03:04;;;;;;;3.95;3.38;;;;;;;11.05;68.99;100871.19;5093547;28;20031;-73
2021/03/12 01:05:36;;;;;;;3.67;2.80;;;;;;;11.01;69.56;100871.88;5076355;28;20070;-73
2021/03/12 01:08:01;;;;;;;3.40;2.90;;;;;;;11.08;69.24;100867.69;5093266;28;20440;-73
2021/03/12 01:10:27;;;;;;;3.65;3.15;;;;;;;11.08;69.14;100865.72;5093478;28;20027;-73
2021/03/12 01:12:53;;;;;;;5.75;3.35;;;;;;;11.10;69.55;100866.19;5092701;28;20115;-73
2021/03/12 01:15:21;;;;;;;3.80;2.80;;;;;;;10.96;69.32;100860.16;5092900;28;20028;-73
2021/03/12 01:17:49;;;;;;;3.38;3.08;;;;;;;10.92;69.15;100854.50;5092038;28;20020;-73
2021/03/12 01:20:28;;;;;;;5.82;2.85;;;;;;;11.09;69.18;100850.63;5093091;28;20071;-73
2021/03/12 01:22:59;;;;;;;4.60;2.67;;;;;;;11.04;69.48;100850.88;5092549;28;20046;-73
2021/03/12 01:25:31;;;;;;;2.80;2.60;;;;;;;11.02;68.97;100848.44;5078137;28;20024;-73
2021/03/12 01:27:57;;;;;;;5.72;3.28;;;;;;;10.97;69.72;100845.06;5094126;28;20020;-73
2021/03/12 01:30:36;;;;;;;7.45;2.90;;;;;;;10.95;69.06;100837.06;5093243;28;20038;-73
2021/03/12 01:33:04;;;;;;;4.38;3.15;;;;;;;10.99;69.67;100835.22;5089467;28;20089;-73
2021/03/12 01:35:30;;;;;;;6.97;3.20;;;;;;;11.08;69.24;100825.91;5093221;28;20039;-73
2021/03/12 01:37:56;;;;;;;8.40;3.60;;;;;;;11.01;69.61;100830.09;5092573;28;20404;-73
2021/03/12 01:40:27;;;;;;;8.10;4.32;;;;;;;10.87;70.07;100821.31;5092549;28;20031;-73
2021/03/12 01:42:57;;;;;;;4.85;3.65;;;;;;;11.01;69.42;100818.94;5092548;28;20471;-73
2021/03/12 01:45:32;;;;;;;4.05;3.65;;;;;;;10.95;69.81;100812.00;5092434;28;20081;-73
2021/03/12 01:48:00;;;;;;;6.90;3.85;;;;;;;11.04;69.88;100805.50;5092484;28;20028;-73
2021/03/12 01:50:27;;;;;;;3.85;3.50;;;;;;;11.02;70.09;100800.28;5092077;28;20177;-73
2021/03/12 01:52:53;;;;;;;7.05;4.13;;;;;;;10.97;70.53;100806.91;5092453;28;20036;-73
2021/03/12 01:55:28;;;;;;;4.93;3.63;;;;;;;11.05;69.51;100807.13;5093402;28;20032;-73
2021/03/12 01:57:54;;;;;;;3.63;3.33;;;;;;;11.06;70.40;100806.78;5092378;28;20030;-72
2021/03/12 02:00:21;;;;;;;5.63;4.10;;;;;;;11.09;70.12;100797.72;5092969;28;20114;-73
2021/03/12 02:02:49;;;;;;;4.32;3.05;;;;;;;11.04;70.28;100792.41;5092328;28;20030;-73
2021/03/12 02:05:16;;;;;;;4.97;3.65;;;;;;;11.01;70.32;100802.25;5092252;28;20024;-73
2021/03/12 02:07:44;;;;;;;5.68;3.45;;;;;;;10.95;70.28;100803.66;5092023;28;20017;-73
2021/03/12 02:10:24;;;;;;;5.90;3.60;;;;;;;10.89;70.83;100796.72;5092847;28;20036;-73
2021/03/12 02:12:56;;;;;;;7.88;3.70;;;;;;;11.00;69.35;100795.06;5092836;28;20466;-73
2021/03/12 02:15:29;;;;;;;3.72;3.35;;;;;;;11.00;69.63;100788.69;5092232;28;20032;-73
2021/03/12 02:18:06;;;;;;;4.05;3.33;;;;;;;10.92;69.17;100779.31;5092734;28;20039;-73
2021/03/12 02:20:41;;;;;;;3.83;3.33;;;;;;;11.01;69.45;100779.16;5092236;28;20039;-73
2021/03/12 02:23:23;;;;;;;6.43;3.50;;;;;;;11.03;69.44;100785.22;5092096;28;20024;-74
2021/03/12 02:26:06;;;;;;;4.50;3.20;;;;;;;11.05;69.45;100782.88;5092116;28;20039;-73
2021/03/12 02:28:33;;;;;;;7.88;3.58;;;;;;;10.97;69.54;100765.16;5092462;28;20608;-73
2021/03/12 02:31:00;;;;;;;5.00;3.22;;;;;;;11.09;69.47;100777.41;5096047;28;20513;-73
2021/03/12 02:33:28;;;;;;;5.55;3.13;;;;;;;10.99;70.24;100785.09;5095984;28;20023;-73
2021/03/12 02:35:55;;;;;;;6.13;2.90;;;;;;;10.96;70.04;100784.97;5096417;28;20035;-73
2021/03/12 02:38:24;;;;;;;4.95;3.42;;;;;;;10.94;70.78;100778.97;5095823;28;20089;-73
2021/03/12 02:40:50;;;;;;;4.40;3.05;;;;;;;11.02;69.96;100776.06;5096092;28;20121;-73
2021/03/12 02:43:17;;;;;;;4.75;3.33;;;;;;;10.97;70.20;100767.09;5095615;28;20028;-72
2021/03/12 02:45:44;;;;;;;3.75;2.67;;;;;;;10.91;70.76;100774.88;5096218;28;20043;-73
2021/03/12 02:48:15;;;;;;;7.05;3.92;;;;;;;10.95;71.00;100778.59;5096202;28;20059;-73
2021/03/12 02:50:42;;;;;;;3.85;3.20;;;;;;;11.00;70.45;100781.13;5095469;28;20044;-73
2021/03/12 02:53:08;;;;;;;4.53;3.05;;;;;;;10.97;70.52;100778.22;5095756;28;20384;-72
2021/03/12 02:55:37;;;;;;;4.35;3.10;;;;;;;10.97;70.21;100784.66;5095479;28;20097;-73
2021/03/12 02:58:06;;;;;;;5.97;3.70;;;;;;;10.95;69.94;100778.59;5095405;28;20026;-73
2021/03/12 03:00:33;;;;;;;7.03;3.20;;;;;;;10.98;70.36;100779.88;5095414;28;20051;-73
2021/03/12 03:03:01;;;;;;;3.65;3.35;;;;;;;10.91;70.55;100771.28;5095308;28;20019;-73
2021/03/12 03:05:28;;;;;;;6.90;3.35;;;;;;;10.86;70.32;100766.78;5095452;28;20360;-73
2021/03/12 03:07:57;;;;;;;3.55;3.25;;;;;;;10.91;69.94;100769.31;5095545;28;20028;-73
2021/03/12 03:10:25;;;;;;;6.53;3.60;;;;;;;11.00;69.16;100767.22;5078608;28;20043;-72
2021/03/12 03:12:53;;;;;;;3.75;3.08;;;;;;;10.97;69.45;100767.09;5095717;28;20111;-73
2021/03/12 03:15:21;;;;;;;4.00;3.60;;;;;;;10.91;69.76;100758.19;5095130;28;20111;-73
2021/03/12 03:17:50;;;;;;;4.53;3.22;;;;;;;11.04;69.18;100752.59;5095057;28;20035;-73
2021/03/12 03:20:17;;;;;;;7.03;2.85;;;;;;;10.97;69.46;100755.97;5095002;28;20115;-72
2021/03/12 03:22:47;;;;;;;6.25;2.88;;;;;;;10.94;69.25;100751.91;5094673;28;20124;-73
2021/03/12 03:25:17;;;;;;;4.53;3.28;;;;;;;10.94;69.67;100754.72;5078680;28;20052;-73
2021/03/12 03:27:43;;;;;;;3.85;2.65;;;;;;;10.94;69.89;100757.50;5095154;28;20024;-72
2021/03/12 03:30:14;;;;;;;5.88;3.28;;;;;;;10.94;69.52;100754.72;5094872;28;20485;-73
2021/03/12 03:32:42;;;;;;;4.65;3.58;;;;;;;10.91;69.58;100762.94;5094756;28;20028;-72
2021/03/12 03:35:12;;;;;;;5.50;3.78;;;;;;;10.82;70.54;100760.31;5095293;28;20036;-73
2021/03/12 03:37:38;;;;;;;5.05;3.92;;;;;;;10.82;70.26;100765.06;5077985;28;20523;-73
2021/03/12 03:40:10;;;;;;;7.30;4.50;;;;;;;10.82;70.83;100757.53;5094235;28;20035;-73
2021/03/12 03:42:38;;;;;;;13.80;8.23;;;;;;;10.78;70.82;100764.13;5094175;28;20028;-73
2021/03/12 03:45:08;;;;;;;12.23;7.68;;;;;;;10.56;70.67;100713.38;5094474;28;20156;-74
2021/03/12 03:47:34;;;;;;;7.28;5.72;;;;;;;10.75;71.15;100743.38;5095140;28;20028;-74
2021/03/12 03:50:00;;;;;;;12.57;7.53;;;;;;;10.70;71.21;100738.03;5095107;28;20056;-73
2021/03/12 03:52:32;;;;;;;9.63;6.70;;;;;;;10.70;71.40;100747.19;5095315;28;20024;-73
2021/03/12 03:54:59;;;;;;;8.43;6.72;;;;;;;10.67;72.05;100741.53;5094340;28;20028;-73
2021/03/12 03:57:26;;;;;;;9.73;6.75;;;;;;;10.65;71.88;100743.84;5094345;28;20020;-73
2021/03/12 03:59:52;;;;;;;8.38;5.53;;;;;;;10.63;71.83;100740.59;5094269;28;20039;-73
2021/03/12 04:02:27;;;;;;;9.45;5.72;;;;;;;10.62;72.04;100739.00;5094468;28;20024;-72
2021/03/12 04:04:53;;;;;;;8.13;5.10;;;;;;;10.64;72.44;100753.34;5094048;28;20085;-73
2021/03/12 04:07:23;;;;;;;8.07;5.25;;;;;;;10.60;72.23;100747.69;5093892;28;20470;-73
2021/03/12 04:09:51;;;;;;;8.52;5.47;;;;;;;10.59;72.76;100748.84;5093992;28;20131;-73
2021/03/12 04:12:17;;;;;;;8.63;4.53;;;;;;;10.57;73.01;100759.50;5060858;28;20551;-73
2021/03/12 04:14:46;;;;;;;5.32;4.22;;;;;;;10.54;72.74;100762.16;5094221;28;20394;-73
2021/03/12 04:17:13;;;;;;;3.95;3.50;;;;;;;10.53;73.45;100753.00;5094903;28;20024;-72
2021/03/12 04:19:46;;;;;;;3.65;3.35;;;;;;;10.54;73.18;100751.03;5093865;28;20032;-73
2021/03/12 04:22:16;;;;;;;7.88;3.72;;;;;;;10.51;73.25;100751.75;5093570;28;20115;-73
2021/03/12 04:24:44;;;;;;;5.32;3.38;;;;;;;10.46;73.05;100747.22;5094271;28;20036;-73
2021/03/12 04:27:13;;;;;;;5.00;3.85;;;;;;;10.29;73.50;100728.81;5094342;28;20374;-73
2021/03/12 04:29:39;;;;;;;5.57;4.20;;;;;;;10.43;73.50;100762.63;5093960;28;20034;-73
2021/03/12 04:32:06;;;;;;;6.28;3.90;;;;;;;10.35;73.66;100752.44;5093597;28;20034;-73
2021/03/12 04:34:35;;;;;;;4.72;4.20;;;;;;;10.30;74.08;100755.47;5094434;28;20028;-73
2021/03/12 04:37:04;;;;;;;6.50;4.30;;;;;;;10.23;74.03;100752.44;5093795;28;20031;-73
2021/03/12 04:39:31;;;;;;;4.43;4.00;;;;;;;10.17;74.34;100757.41;5093382;28;20497;-73
2021/03/12 04:41:59;;;;;;;6.50;4.68;;;;;;;10.13;74.22;100750.09;5093437;28;20169;-73
2021/03/12 04:44:28;;;;;;;7.47;5.20;;;;;;;10.14;74.39;100762.84;5093880;28;20024;-73
2021/03/12 04:46:57;;;;;;;6.10;5.47;;;;;;;10.12;74.49;100759.56;5093338;28;20031;-73
2021/03/12 04:49:23;;;;;;;6.18;5.45;;;;;;;10.08;74.26;100747.53;5097135;28;20056;-73
2021/03/12 04:51:49;;;;;;;7.03;4.32;;;;;;;10.08;74.61;100741.97;5096574;28;20047;-73
2021/03/12 04:54:16;;;;;;;5.05;4.55;;;;;;;10.12;74.68;100740.09;5097129;28;20030;-73
2021/03/12 04:56:42;;;;;;;4.20;3.80;;;;;;;10.15;74.80;100742.22;5096580;28;20027;-73
2021/03/12 04:59:09;;;;;;;8.43;5.22;;;;;;;10.14;74.46;100735.84;5096537;28;20118;-73
2021/03/12 05:01:36;;;;;;;14.27;8.57;;;;;;;10.12;74.84;100742.88;5097290;28;20462;-73
2021/03/12 05:04:04;;;;;;;8.75;7.85;;;;;;;10.09;75.33;100743.59;5114346;28;20027;-73
2021/03/12 05:06:31;;;;;;;10.10;6.18;;;;;;;10.11;74.99;100741.28;5096406;28;20039;-73
2021/03/12 05:08:59;;;;;;;4.80;4.30;;;;;;;10.11;74.90;100736.53;5096322;28;20089;-73
2021/03/12 05:11:28;;;;;;;6.70;3.40;;;;;;;10.11;74.65;100733.72;5096818;28;20035;-73
2021/03/12 05:13:53;;;;;;;6.55;3.42;;;;;;;10.20;74.61;100739.19;5096224;28;20062;-73
2021/03/12 05:16:19;;;;;;;4.28;3.88;;;;;;;10.15;75.25;100747.78;5097107;28;20031;-73
2021/03/12 05:18:45;;;;;;;4.90;4.13;;;;;;;10.10;75.55;100745.22;5096167;28;20023;-73
2021/03/12 05:21:13;;;;;;;3.88;3.35;;;;;;;10.08;75.69;100737.22;5096706;28;20023;-73
2021/03/12 05:23:39;;;;;;;4.30;3.90;;;;;;;10.23;75.38;100744.91;5096099;28;20023;-73
2021/03/12 05:26:08;;;;;;;5.65;3.60;;;;;;;10.25;75.33;100741.78;5096053;28;20054;-72
2021/03/12 05:28:36;;;;;;;7.05;4.05;;;;;;;10.34;75.03;100739.72;5096092;28;20039;-72
2021/03/12 05:31:02;;;;;;;5.10;3.92;;;;;;;10.39;75.22;100742.25;5096284;28;20085;-73
2021/03/12 05:33:28;;;;;;;8.10;3.22;;;;;;;10.43;74.62;100737.59;5096088;28;20412;-73
2021/03/12 05:35:54;;;;;;;6.47;4.00;;;;;;;10.42;75.14;100747.09;5096262;28;20114;-73
2021/03/12 05:38:28;;;;;;;3.72;3.08;;;;;;;10.35;75.03;100738.53;5096515;28;20521;-73
2021/03/12 05:40:56;;;;;;;3.50;3.17;;;;;;;10.34;74.79;100742.50;5096195;28;20047;-73
2021/03/12 05:43:26;;;;;;;4.10;2.80;;;;;;;10.41;75.00;100745.50;5096399;28;20450;-72
2021/03/12 05:45:53;;;;;;;5.93;3.55;;;;;;;10.45;74.95;100751.19;5096195;28;20106;-72
2021/03/12 05:48:19;;;;;;;5.18;3.60;;;;;;;10.42;74.92;100758.22;5095909;28;20126;-73
2021/03/12 05:50:45;;;;;;;4.10;3.40;;;;;;;10.41;75.43;100762.19;5092429;28;20083;-71
2021/03/12 05:53:11;;;;;;;7.40;5.43;;;;;;;10.37;75.15;100758.47;5092473;28;20047;-72
2021/03/12 05:55:37;;;;;;;5.10;4.60;;;;;;;10.29;75.16;100748.28;5092686;28;20024;-72
2021/03/12 05:58:03;;;;;;;7.55;4.85;;;;;;;10.19;75.53;100762.59;5092450;28;20027;-72
2021/03/12 06:00:28;;;;;;;5.50;4.63;;;;;;;10.20;75.11;100761.44;5092688;28;20119;-72
2021/03/12 06:02:54;;;;;;;31.25;28.13;;;;;;;10.18;75.51;100752.66;5092715;28;20043;-72
2021/03/12 06:05:20;;;;;;;9.68;7.55;;;;;;;10.12;74.83;100754.00;5095855;28;20355;-72
2021/03/12 06:07:49;;;;;;;10.52;7.10;;;;;;;10.21;73.73;100752.75;5096359;28;20024;-72
2021/03/12 06:10:18;;;;;;;7.32;6.55;;;;;;;10.21;73.65;100751.94;5096860;28;20028;-72
2021/03/12 06:12:44;;;;;;;8.80;6.20;;;;;;;10.23;73.57;100755.19;5097203;28;20036;-73
2021/03/12 06:15:15;;;;;;;7.47;6.75;;;;;;;10.14;73.21;100746.16;5098145;28;20036;-74
2021/03/12 06:17:46;;;;;;;11.00;6.90;;;;;;;10.20;73.11;100756.69;5097380;28;20055;-73
2021/03/12 06:20:18;;;;;;;10.07;7.18;;;;;;;10.22;73.20;100748.81;5096225;28;20024;-74
2021/03/12 06:22:50;;;;;;;7.90;6.68;;;;;;;10.31;72.77;100751.50;5096156;28;20028;-73
2021/03/12 06:25:21;;;;;;;8.35;7.03;;;;;;;10.39;72.04;100753.38;5096240;28;20454;-73
2021/03/12 06:27:52;;;;;;;12.13;7.78;;;;;;;10.40;71.85;100749.44;5095946;28;20027;-72
2021/03/12 06:30:23;;;;;;;10.93;7.63;;;;;;;10.56;72.04;100763.47;5097296;28;20370;-73
2021/03/12 06:32:53;;;;;;;7.15;6.45;;;;;;;10.62;71.29;100753.72;5079786;28;20089;-73
2021/03/12 06:35:23;;;;;;;7.32;5.88;;;;;;;10.67;71.60;100750.69;5095718;28;20039;-73
2021/03/12 06:37:50;;;;;;;7.10;6.40;;;;;;;10.77;71.37;100754.16;5096457;28;20424;-73
2021/03/12 06:40:15;;;;;;;10.68;5.88;;;;;;;10.77;70.68;100752.19;5096056;28;20028;-73
2021/03/12 06:42:59;;;;;;;7.68;6.03;;;;;;;10.86;69.97;100740.91;5096327;28;20476;-74
2021/03/12 06:45:24;;;;;;;7.28;6.15;;;;;;;10.97;69.69;100740.09;5095953;28;20049;-74
2021/03/12 06:47:53;;;;;;;9.48;6.38;;;;;;;11.07;69.07;100746.31;5095581;28;20492;-73
2021/03/12 06:50:19;;;;;;;9.98;6.78;;;;;;;11.14;68.69;100738.19;5095272;28;20056;-73
2021/03/12 06:52:48;;;;;;;11.05;6.18;;;;;;;11.55;67.41;100743.34;5095828;28;20363;-74
2021/03/12 06:55:16;;;;;;;9.98;6.70;;;;;;;11.89;66.05;100746.69;5095516;28;20131;-74
2021/03/12 06:57:41;;;;;;;9.98;6.45;;;;;;;12.12;64.39;100749.66;5096044;28;20082;-74
2021/03/12 07:00:08;;;;;;;7.43;5.57;;;;;;;12.38;63.94;100751.91;5095389;28;20468;-74
2021/03/12 07:02:38;;;;;;;7.97;5.55;;;;;;;12.36;63.13;100753.41;5095914;28;20440;-74
2021/03/12 07:05:04;;;;;;;10.50;6.65;;;;;;;12.49;63.55;100744.59;5095554;28;20036;-73
2021/03/12 07:07:37;;;;;;;7.32;6.05;;;;;;;12.49;62.86;100752.97;5095200;28;20115;-73
2021/03/12 07:10:06;;;;;;;10.13;7.45;;;;;;;12.30;63.09;100755.69;5095708;28;20074;-74
2021/03/12 07:12:50;;;;;;;8.75;7.50;;;;;;;12.10;64.09;100762.34;5095737;28;20020;-73
2021/03/12 07:15:16;;;;;;;13.40;8.65;;;;;;;12.21;63.81;100772.63;5094680;28;20028;-74
2021/03/12 07:17:46;;;;;;;11.38;8.52;;;;;;;12.20;63.96;100773.78;5095473;28;20028;-73
2021/03/12 07:20:18;;;;;;;9.40;6.57;;;;;;;12.29;64.16;100776.38;5096902;28;20032;-73
2021/03/12 07:22:46;;;;;;;10.32;6.97;;;;;;;12.54;63.09;100775.03;5096129;28;20047;-73
2021/03/12 07:25:13;;;;;;;6.93;5.95;;;;;;;12.81;61.70;100784.44;5094878;28;20089;-74
2021/03/12 07:27:40;;;;;;;9.93;5.85;;;;;;;13.04;60.11;100784.56;5094953;28;20031;-73
2021/03/12 07:30:09;;;;;;;11.07;6.05;;;;;;;13.13;60.21;100780.75;5094844;28;20485;-73
2021/03/12 07:32:39;;;;;;;6.55;5.03;;;;;;;13.42;59.74;100777.41;5095077;28;20016;-73
2021/03/12 07:35:06;;;;;;;7.07;5.72;;;;;;;13.49;58.96;100787.94;5094744;28;20028;-73
2021/03/12 07:37:35;;;;;;;11.32;4.90;;;;;;;13.52;58.99;100776.81;5094695;28;20027;-73
2021/03/12 07:40:07;;;;;;;4.05;3.70;;;;;;;13.61;58.89;100787.78;5095245;28;20055;-73
2021/03/12 07:42:34;;;;;;;5.97;3.47;;;;;;;14.01;57.37;100786.53;5094626;28;20059;-73
2021/03/12 07:45:03;;;;;;;3.40;2.80;;;;;;;14.00;56.55;100774.53;5077873;28;20093;-73
2021/03/12 07:47:29;;;;;;;5.22;3.85;;;;;;;13.81;57.80;100775.41;5091855;28;20070;-74
2021/03/12 07:49:56;;;;;;;8.13;3.97;;;;;;;14.04;56.71;100783.00;5094479;28;20387;-73
2021/03/12 07:53:02;;;;;;;4.63;3.53;;;;;;;14.31;56.05;100786.69;5077641;28;20036;-73
2021/03/12 07:55:36;;;;;;;8.52;3.88;;;;;;;14.83;54.65;100783.16;5013480;28;20053;-73
2021/03/12 07:58:07;;;;;;;5.15;3.17;;;;;;;14.91;54.07;100789.69;5084763;28;20067;-73
2021/03/12 08:00:51;;;;;;;6.05;3.53;;;;;;;15.99;51.34;100789.88;5094732;28;20024;-73
2021/03/12 08:03:40;;;;;;;4.78;3.72;;;;;;;16.95;49.26;100781.50;5094400;28;20028;-73
2021/03/12 08:06:18;;;;;;;4.05;3.13;;;;;;;16.97;47.34;100785.50;5093714;28;20081;-74
2021/03/12 08:08:48;;;;;;;3.92;3.45;;;;;;;16.57;48.88;100789.22;5094019;28;20032;-74
2021/03/12 08:11:25;;;;;;;5.28;2.67;;;;;;;16.58;50.14;100795.66;5094269;28;20031;-74
2021/03/12 08:13:52;;;;;;;7.70;2.65;;;;;;;16.23;48.47;100752.81;5093974;28;20090;-74
2021/03/12 08:16:21;;;;;;;3.47;2.10;;;;;;;15.98;48.80;100789.09;5093622;28;20123;-74
2021/03/12 08:18:50;;;;;;;3.60;2.60;;;;;;;16.48;47.78;100789.53;5093457;28;20028;-74
2021/03/12 08:21:34;;;;;;;5.13;2.10;;;;;;;16.72;48.05;100790.16;5093433;28;20028;-73
2021/03/12 08:24:23;;;;;;;4.85;2.13;;;;;;;16.55;47.64;100780.34;5093350;28;20035;-74
2021/03/12 08:26:55;;;;;;;4.07;2.40;;;;;;;16.53;47.75;100781.97;5093054;28;20055;-74
2021/03/12 08:29:30;;;;;;;3.97;1.98;;;;;;;16.49;47.43;100791.16;5093685;28;20497;-73
2021/03/12 08:31:59;;;;;;;6.38;2.20;;;;;;;16.33;46.86;100781.38;5092801;28;20031;-73
2021/03/12 08:34:41;;;;;;;3.40;2.13;;;;;;;16.60;46.26;100796.84;5093321;28;20035;-74
2021/03/12 08:37:25;;;;;;;4.63;1.73;;;;;;;16.71;45.63;100796.97;5093209;28;20474;-74
2021/03/12 08:40:16;;;;;;;3.58;1.52;;;;;;;16.62;45.46;100796.47;5093690;28;20375;-73
2021/03/12 08:43:03;;;;;;;2.88;1.80;;;;;;;16.54;45.98;100787.19;5079573;28;20032;-73
2021/03/12 08:45:49;;;;;;;4.97;2.10;;;;;;;16.38;46.25;100792.25;5092914;28;20085;-74
2021/03/12 08:48:22;;;;;;;3.60;1.90;;;;;;;16.91;46.41;100791.91;5093722;28;20111;-73
2021/03/12 08:51:12;;;;;;;3.80;2.83;;;;;;;16.98;46.13;100800.38;5092385;28;20137;-73
2021/03/12 08:53:49;;;;;;;4.53;2.08;;;;;;;16.97;46.11;100796.75;5094266;28;20039;-75
2021/03/12 08:56:24;;;;;;;3.47;1.95;;;;;;;16.70;45.62;100787.72;5093505;28;20036;-74
2021/03/12 08:58:49;;;;;;;4.90;2.67;;;;;;;16.91;45.65;100787.09;5092965;28;20035;-74
2021/03/12 09:01:17;;;;;;;6.63;1.95;;;;;;;16.96;45.70;100783.91;5092775;28;20398;-74
2021/03/12 09:03:47;;;;;;;3.72;2.28;;;;;;;16.80;45.93;100779.78;5092612;28;20039;-74
2021/03/12 09:06:19;;;;;;;5.38;1.95;;;;;;;16.46;46.22;100755.44;5092595;28;20042;-75
2021/03/12 09:08:48;;;;;;;3.45;1.77;;;;;;;16.91;46.00;100780.66;5092442;28;20031;-75
2021/03/12 09:11:17;;;;;;;6.25;1.63;;;;;;;16.91;45.90;100772.22;5092075;28;20139;-75
2021/03/12 09:13:47;;;;;;;1.73;1.60;;;;;;;17.35;45.33;100772.06;5092346;28;20081;-75
2021/03/12 09:16:22;;;;;;;6.38;2.10;;;;;;;17.65;44.69;100766.16;5093396;28;20032;-74
2021/03/12 09:18:53;;;;;;;1.67;1.42;;;;;;;16.90;46.43;100768.63;5092444;28;20024;-75
2021/03/12 09:21:24;;;;;;;2.53;1.85;;;;;;;17.36;45.43;100761.59;5092491;28;20036;-74
2021/03/12 09:23:52;;;;;;;2.03;1.38;;;;;;;17.09;46.13;100741.41;5092405;28;20114;-74
2021/03/12 09:26:23;;;;;;;4.53;2.13;;;;;;;17.79;45.10;100757.00;5092219;28;20058;-74
2021/03/12 09:28:52;;;;;;;5.93;2.17;;;;;;;17.64;44.71;100750.47;5092151;28;20030;-75
2021/03/12 09:31:25;;;;;;;3.38;1.60;;;;;;;18.19;44.08;100753.03;5092324;28;20023;-74
2021/03/12 09:33:53;;;;;;;4.25;1.77;;;;;;;17.59;45.18;100750.88;5092208;28;20084;-75
2021/03/12 09:36:28;;;;;;;4.22;1.67;;;;;;;17.52;45.95;100748.00;5092235;28;20032;-74
2021/03/12 09:39:03;;;;;;;7.60;2.50;;;;;;;18.24;43.73;100749.00;5091626;28;20024;-74
2021/03/12 09:41:28;;;;;;;3.78;1.88;;;;;;;18.00;43.06;100751.41;5092138;28;20056;-74
2021/03/12 09:44:15;;;;;;;3.72;2.63;;;;;;;18.65;42.90;100746.59;5091927;28;20442;-74
2021/03/12 09:46:45;;;;;;;4.10;1.67;;;;;;;18.62;41.97;100738.94;5092617;28;20416;-74
2021/03/12 09:49:14;;;;;;;6.13;2.20;;;;;;;18.59;42.20;100728.47;5093251;28;20024;-74
2021/03/12 09:51:43;;;;;;;2.25;1.35;;;;;;;18.69;41.40;100727.66;5095900;28;20089;-74
2021/03/12 09:54:10;;;;;;;3.38;1.70;;;;;;;18.97;41.04;100728.84;5095981;28;20408;-74
2021/03/12 09:56:40;;;;;;;7.22;2.30;;;;;;;18.72;41.00;100720.44;5095426;28;20043;-74
2021/03/12 09:59:06;;;;;;;3.72;1.90;;;;;;;18.95;39.62;100719.97;5095131;28;20032;-75
2021/03/12 10:01:40;;;;;;;6.32;2.03;;;;;;;19.09;39.25;100714.28;5113328;28;20042;-76
2021/03/12 10:04:36;;;;;;;5.10;1.90;;;;;;;19.41;38.91;100710.53;5095064;28;20034;-74
2021/03/12 10:07:08;;;;;;;5.88;2.10;;;;;;;19.68;38.65;100711.63;5093335;28;20039;-73
2021/03/12 10:09:35;;;;;;;2.20;2.00;;;;;;;20.09;37.92;100716.59;5095845;28;20116;-72
2021/03/12 10:12:02;;;;;;;3.08;2.00;;;;;;;19.68;37.41;100615.63;5095286;28;20177;-74
2021/03/12 10:14:41;;;;;;;2.00;1.70;;;;;;;20.39;36.69;100699.75;5094883;28;20020;-74
2021/03/12 10:17:16;;;;;;;2.97;1.80;;;;;;;21.30;35.39;100695.59;5095737;28;20023;-73
2021/03/12 10:19:42;;;;;;;3.30;1.58;;;;;;;20.01;37.23;100698.09;5095616;28;20360;-71
2021/03/12 10:22:27;;;;;;;1.70;1.60;;;;;;;20.95;36.29;100691.16;5095721;28;20027;-73
2021/03/12 10:25:02;;;;;;;5.00;2.08;;;;;;;21.53;35.43;100699.75;5095982;28;20031;-73
2021/03/12 10:27:34;;;;;;;5.03;2.20;;;;;;;21.50;35.72;100692.09;5095086;28;20130;-74
2021/03/12 10:30:07;;;;;;;3.88;1.83;;;;;;;20.43;37.52;100694.09;5094936;28;20168;-74
2021/03/12 10:32:37;;;;;;;4.93;2.13;;;;;;;20.87;37.14;100690.44;5094922;28;20028;-74
2021/03/12 10:35:03;;;;;;;2.90;2.22;;;;;;;20.53;37.88;100686.78;5095037;28;20028;-74
2021/03/12 10:37:35;;;;;;;4.80;2.63;;;;;;;20.21;39.12;100690.66;5094856;28;20114;-73
2021/03/12 10:40:09;;;;;;;5.47;1.88;;;;;;;20.12;39.83;100687.50;5095559;28;20035;-73
2021/03/12 10:42:35;;;;;;;4.40;2.25;;;;;;;19.18;41.58;100685.66;5094995;28;20024;-73
2021/03/12 10:45:05;;;;;;;3.63;1.75;;;;;;;19.80;39.73;100685.72;5094846;28;20053;-73
2021/03/12 10:47:32;;;;;;;3.35;2.45;;;;;;;20.25;39.67;100671.66;5094616;28;20024;-73
2021/03/12 10:49:57;;;;;;;5.57;2.22;;;;;;;19.34;41.25;100674.69;5095309;28;20489;-73
2021/03/12 10:52:24;;;;;;;6.07;2.00;;;;;;;19.34;41.83;100672.69;5117087;28;20088;-74
2021/03/12 10:54:50;;;;;;;3.75;1.65;;;;;;;19.23;42.84;100674.75;5098969;28;20027;-75
2021/03/12 10:57:38;;;;;;;7.07;2.47;;;;;;;19.28;42.86;100676.31;5098844;28;20493;-75
2021/03/12 11:00:13;;;;;;;7.88;2.00;;;;;;;19.34;41.96;100644.47;5099222;28;20040;-75
2021/03/12 11:02:39;;;;;;;3.53;2.22;;;;;;;19.34;42.82;100667.03;5116975;28;20020;-75
2021/03/12 11:05:05;;;;;;;4.82;2.10;;;;;;;20.32;40.56;100660.28;5098207;28;20061;-75
2021/03/12 11:07:32;;;;;;;8.43;1.92;;;;;;;20.19;40.51;100649.91;5098303;28;20055;-75
2021/03/12 11:09:58;;;;;;;5.35;2.40;;;;;;;19.66;40.65;100653.97;5098336;28;20028;-75
2021/03/12 11:12:25;;;;;;;3.92;2.05;;;;;;;19.58;40.88;100656.00;5098133;28;20031;-75
2021/03/12 11:14:51;;;;;;;3.80;1.90;;;;;;;19.03;41.95;100654.69;5099102;28;20035;-75
2021/03/12 11:17:17;;;;;;;2.70;2.30;;;;;;;19.40;40.90;100650.47;5098643;28;20508;-74
2021/03/12 11:19:42;;;;;;;2.22;1.85;;;;;;;19.06;42.11;100645.38;5098070;28;20546;-74
2021/03/12 11:22:08;;;;;;;6.18;2.03;;;;;;;19.83;40.85;100631.25;5097897;28;20023;-75
2021/03/12 11:24:34;;;;;;;6.05;2.08;;;;;;;19.21;42.70;100639.69;5097797;28;20123;-74
2021/03/12 11:26:59;;;;;;;4.00;2.03;;;;;;;19.34;42.01;100629.56;5097927;28;20023;-74
2021/03/12 11:29:30;;;;;;;2.80;2.03;;;;;;;19.54;42.73;100632.63;5097795;28;20118;-75
2021/03/12 11:31:55;;;;;;;6.57;1.92;;;;;;;19.24;43.41;100636.84;5097800;28;20599;-74
2021/03/12 11:34:24;;;;;;;6.53;2.47;;;;;;;19.25;44.16;100632.00;5097747;28;20129;-75
2021/03/12 11:36:53;;;;;;;7.68;2.58;;;;;;;19.53;44.02;100631.03;5098057;28;20032;-74